createdAt,value
2019-03-25T00:00:40.553Z,1019.83
2019-03-25T00:01:40.675Z,1019.81
2019-03-25T00:02:40.492Z,1019.79
2019-03-25T00:03:40.475Z,1019.76
2019-03-25T00:04:40.437Z,1019.75
2019-03-25T00:05:40.603Z,1019.69
2019-03-25T00:06:40.386Z,1019.60
2019-03-25T00:07:40.491Z,1019.62
2019-03-25T00:08:40.333Z,1019.61
2019-03-25T00:09:40.416Z,1019.58
2019-03-25T00:10:40.254Z,1019.54
2019-03-25T00:11:40.423Z,1019.54
2019-03-25T00:12:40.192Z,1019.54
2019-03-25T00:13:40.332Z,1019.52
2019-03-25T00:14:40.350Z,1019.53
2019-03-25T00:15:40.105Z,1019.49
2019-03-25T00:16:40.253Z,1019.50
2019-03-25T00:17:40.051Z,1019.43
2019-03-25T00:18:40.163Z,1019.45
2019-03-25T00:19:39.991Z,1019.39
2019-03-25T00:20:40.072Z,1019.40
2019-03-25T00:21:39.922Z,1019.37
2019-03-25T00:22:40.105Z,1019.40
2019-03-25T00:23:39.884Z,1019.31
2019-03-25T00:24:40.003Z,1019.33
2019-03-25T00:25:39.813Z,1019.27
2019-03-25T00:26:39.913Z,1019.24
2019-03-25T00:27:39.753Z,1019.29
2019-03-25T00:28:39.934Z,1019.28
2019-03-25T00:29:39.694Z,1019.28
2019-03-25T00:30:39.845Z,1019.30
2019-03-25T00:31:39.632Z,1019.26
2019-03-25T00:32:39.764Z,1019.31
2019-03-25T00:33:39.573Z,1019.26
2019-03-25T00:34:39.661Z,1019.27
2019-03-25T00:35:39.522Z,1019.26
2019-03-25T00:36:39.482Z,1019.20
2019-03-25T00:37:39.451Z,1019.22
2019-03-25T00:38:39.493Z,1019.17
2019-03-25T00:39:39.394Z,1019.15
2019-03-25T00:40:39.401Z,1019.14
2019-03-25T00:41:39.333Z,1019.12
2019-03-25T00:42:39.302Z,1019.07
2019-03-25T00:43:39.323Z,1019.06
2019-03-25T00:44:39.243Z,1019.08
2019-03-25T00:45:39.333Z,1019.01
2019-03-25T00:46:39.180Z,1019.00
2019-03-25T00:47:39.154Z,1018.97
2019-03-25T00:48:39.123Z,1019.00
2019-03-25T00:49:39.152Z,1018.97
2019-03-25T00:50:39.063Z,1019.00
2019-03-25T00:51:39.127Z,1019.00
2019-03-25T00:52:39.002Z,1019.04
2019-03-25T00:53:38.973Z,1019.03
2019-03-25T00:54:49.343Z,1019.00
2019-03-25T00:55:38.911Z,1018.98
2019-03-25T00:56:39.003Z,1018.94
2019-03-25T00:57:38.852Z,1018.90
2019-03-25T00:58:38.832Z,1018.91
2019-03-25T00:59:38.794Z,1018.88
2019-03-25T01:00:38.822Z,1018.86
2019-03-25T01:01:38.746Z,1018.85
2019-03-25T01:02:38.847Z,1018.86
2019-03-25T01:03:38.692Z,1018.81
2019-03-25T01:04:38.641Z,1018.80
2019-03-25T01:05:38.613Z,1018.75
2019-03-25T01:06:38.662Z,1018.82
2019-03-25T01:07:38.562Z,1018.70
2019-03-25T01:08:38.671Z,1018.76
2019-03-25T01:09:38.503Z,1018.72
2019-03-25T01:10:38.604Z,1018.75
2019-03-25T01:11:48.676Z,1018.68
2019-03-25T01:12:38.413Z,1018.80
2019-03-25T01:13:38.502Z,1018.70
2019-03-25T01:14:38.379Z,1018.73
2019-03-25T01:15:38.322Z,1018.67
2019-03-25T01:16:38.292Z,1018.68
2019-03-25T01:17:38.353Z,1018.67
2019-03-25T01:18:38.232Z,1018.64
2019-03-25T01:19:38.350Z,1018.60
2019-03-25T01:20:38.176Z,1018.57
2019-03-25T01:21:38.145Z,1018.58
2019-03-25T01:22:38.273Z,1018.55
2019-03-25T01:23:38.080Z,1018.55
2019-03-25T01:24:38.172Z,1018.49
2019-03-25T01:25:38.021Z,1018.53
2019-03-25T01:26:37.996Z,1018.47
2019-03-25T01:27:37.964Z,1018.48
2019-03-25T01:28:38.013Z,1018.47
2019-03-25T01:29:37.905Z,1018.44
2019-03-25T01:30:38.013Z,1018.53
2019-03-25T01:31:37.843Z,1018.42
2019-03-25T01:32:37.811Z,1018.43
2019-03-25T01:33:37.938Z,1018.45
2019-03-25T01:34:37.753Z,1018.37
2019-03-25T01:35:37.852Z,1018.46
2019-03-25T01:36:37.692Z,1018.40
2019-03-25T01:37:37.663Z,1018.38
2019-03-25T01:38:37.643Z,1018.40
2019-03-25T01:39:37.777Z,1018.35
2019-03-25T01:40:37.571Z,1018.41
2019-03-25T01:41:37.703Z,1018.34
2019-03-25T01:42:37.514Z,1018.31
2019-03-25T01:43:37.483Z,1018.30
2019-03-25T01:44:37.602Z,1018.33
2019-03-25T01:45:37.423Z,1018.30
2019-03-25T01:46:37.512Z,1018.30
2019-03-25T01:47:37.373Z,1018.27
2019-03-25T01:48:37.332Z,1018.28
2019-03-25T01:49:37.301Z,1018.22
2019-03-25T01:50:37.442Z,1018.30
2019-03-25T01:51:37.243Z,1018.20
2019-03-25T01:52:37.350Z,1018.20
2019-03-25T01:53:37.171Z,1018.16
2019-03-25T01:54:37.152Z,1018.19
2019-03-25T01:55:37.122Z,1018.13
2019-03-25T01:56:37.285Z,1018.16
2019-03-25T01:57:37.062Z,1018.15
2019-03-25T01:58:37.183Z,1018.12
2019-03-25T01:59:37.009Z,1018.17
2019-03-25T02:00:37.100Z,1018.21
2019-03-25T02:01:36.979Z,1018.19
2019-03-25T02:02:37.013Z,1018.12
2019-03-25T02:03:36.896Z,1018.16
2019-03-25T02:04:37.022Z,1018.15
2019-03-25T02:05:36.832Z,1018.09
2019-03-25T02:06:36.934Z,1018.09
2019-03-25T02:07:36.773Z,1018.06
2019-03-25T02:08:36.870Z,1018.10
2019-03-25T02:09:36.743Z,1018.05
2019-03-25T02:10:36.862Z,1017.99
2019-03-25T02:11:36.654Z,1018.00
2019-03-25T02:12:36.772Z,1017.98
2019-03-25T02:13:36.593Z,1017.96
2019-03-25T02:14:36.682Z,1017.86
2019-03-25T02:15:36.543Z,1017.87
2019-03-25T02:16:36.502Z,1017.95
2019-03-25T02:17:36.471Z,1017.87
2019-03-25T02:18:36.612Z,1017.87
2019-03-25T02:19:36.412Z,1017.85
2019-03-25T02:20:36.521Z,1017.84
2019-03-25T02:21:36.354Z,1017.79
2019-03-25T02:22:36.441Z,1017.83
2019-03-25T02:23:36.442Z,1017.89
2019-03-25T02:24:36.266Z,1017.85
2019-03-25T02:25:36.354Z,1017.82
2019-03-25T02:26:36.201Z,1017.84
2019-03-25T02:27:36.173Z,1017.82
2019-03-25T02:28:36.142Z,1017.82
2019-03-25T02:29:36.283Z,1017.79
2019-03-25T02:30:36.093Z,1017.74
2019-03-25T02:31:36.202Z,1017.70
2019-03-25T02:32:36.033Z,1017.69
2019-03-25T02:33:36.010Z,1017.67
2019-03-25T02:34:36.124Z,1017.70
2019-03-25T02:35:35.947Z,1017.72
2019-03-25T02:36:36.120Z,1017.73
2019-03-25T02:37:35.883Z,1017.69
2019-03-25T02:38:35.853Z,1017.71
2019-03-25T02:39:35.822Z,1017.72
2019-03-25T02:40:35.968Z,1017.70
2019-03-25T02:41:35.784Z,1017.79
2019-03-25T02:42:35.866Z,1017.74
2019-03-25T02:43:35.700Z,1017.75
2019-03-25T02:44:35.683Z,1017.77
2019-03-25T02:45:35.671Z,1017.72
2019-03-25T02:46:42.941Z,1017.76
2019-03-25T02:48:39.673Z,1017.64
2019-03-25T02:49:39.572Z,1017.61
2019-03-25T02:51:43.686Z,1017.58
2019-03-25T02:52:43.493Z,1017.55
2019-03-25T02:54:47.703Z,1017.53
2019-03-25T02:55:47.502Z,1017.54
2019-03-25T02:57:51.552Z,1017.54
2019-03-25T02:58:51.585Z,1017.52
2019-03-25T03:00:55.567Z,1017.48
2019-03-25T03:01:55.523Z,1017.36
2019-03-25T03:03:59.648Z,1017.39
2019-03-25T03:04:59.540Z,1017.38
2019-03-25T03:06:52.534Z,1017.33
2019-03-25T03:07:52.492Z,1017.39
2019-03-25T03:09:56.514Z,1017.40
2019-03-25T03:10:56.411Z,1017.36
2019-03-25T03:13:00.422Z,1017.29
2019-03-25T03:14:00.323Z,1017.37
2019-03-25T03:16:04.350Z,1017.38
2019-03-25T03:17:04.234Z,1017.31
2019-03-25T03:19:08.366Z,1017.36
2019-03-25T03:20:08.243Z,1017.41
2019-03-25T03:22:12.308Z,1017.34
2019-03-25T03:23:12.266Z,1017.31
2019-03-25T03:25:16.384Z,1017.25
2019-03-25T03:26:16.277Z,1017.25
2019-03-25T03:28:20.393Z,1017.33
2019-03-25T03:29:20.293Z,1017.26
2019-03-25T03:31:24.416Z,1017.18
2019-03-25T03:32:24.307Z,1017.14
2019-03-25T03:34:28.364Z,1017.12
2019-03-25T03:35:28.335Z,1017.07
2019-03-25T03:37:32.453Z,1017.12
2019-03-25T03:38:32.333Z,1017.11
2019-03-25T03:40:36.463Z,1017.01
2019-03-25T03:41:36.355Z,1017.02
2019-03-25T03:43:40.476Z,1017.04
2019-03-25T03:44:40.362Z,1017.05
2019-03-25T03:46:33.423Z,1017.02
2019-03-25T03:47:33.325Z,1017.07
2019-03-25T03:49:37.447Z,1017.07
2019-03-25T03:50:37.340Z,1017.07
2019-03-25T03:52:41.469Z,1017.25
2019-03-25T03:53:41.356Z,1017.31
2019-03-25T03:55:45.577Z,1017.45
2019-03-25T03:56:45.455Z,1017.50
2019-03-25T03:58:49.593Z,1017.53
2019-03-25T03:59:49.386Z,1017.47
2019-03-25T04:01:53.609Z,1017.41
2019-03-25T04:02:53.393Z,1017.40
2019-03-25T04:04:57.455Z,1017.36
2019-03-25T04:05:57.488Z,1017.45
2019-03-25T04:08:01.466Z,1017.40
2019-03-25T04:09:01.504Z,1017.52
2019-03-25T04:11:05.661Z,1017.40
2019-03-25T04:12:05.444Z,1017.42
2019-03-25T04:14:09.511Z,1017.31
2019-03-25T04:15:09.633Z,1017.24
2019-03-25T04:17:02.622Z,1017.20
2019-03-25T04:18:02.405Z,1017.21
2019-03-25T04:20:06.658Z,1017.20
2019-03-25T04:21:06.427Z,1017.19
2019-03-25T04:23:10.473Z,1017.24
2019-03-25T04:24:10.616Z,1017.27
2019-03-25T04:26:27.741Z,1017.30
2019-03-25T04:27:14.471Z,1017.35
2019-03-25T04:29:18.695Z,1017.46
2019-03-25T04:30:18.650Z,1017.55
2019-03-25T04:32:22.707Z,1017.58
2019-03-25T04:33:22.485Z,1017.58
2019-03-25T04:35:26.555Z,1017.62
2019-03-25T04:36:26.506Z,1017.73
2019-03-25T04:38:30.516Z,1017.74
2019-03-25T04:39:30.425Z,1017.70
2019-03-25T04:41:34.384Z,1017.58
2019-03-25T04:42:34.323Z,1017.54
2019-03-25T04:44:38.343Z,1017.38
2019-03-25T04:45:38.234Z,1017.36
2019-03-25T04:47:42.257Z,1017.28
2019-03-25T04:48:42.149Z,1017.28
2019-03-25T04:50:46.162Z,1017.31
2019-03-25T04:51:46.069Z,1017.32
2019-03-25T04:53:50.097Z,1017.34
2019-03-25T04:54:49.974Z,1017.26
2019-03-25T04:56:42.937Z,1017.32
2019-03-25T04:57:42.843Z,1017.26
2019-03-25T04:59:46.850Z,1017.27
2019-03-25T05:00:46.754Z,1017.35
2019-03-25T05:01:46.823Z,1017.23
2019-03-25T05:02:46.682Z,1017.22
2019-03-25T05:03:46.666Z,1017.22
2019-03-25T05:04:46.625Z,1017.24
2019-03-25T05:05:46.645Z,1017.22
2019-03-25T05:06:46.561Z,1017.30
2019-03-25T05:07:46.559Z,1017.25
2019-03-25T05:08:46.502Z,1017.23
2019-03-25T05:09:46.476Z,1017.29
2019-03-25T05:10:46.485Z,1017.23
2019-03-25T05:11:46.411Z,1017.21
2019-03-25T05:12:46.494Z,1017.26
2019-03-25T05:13:46.354Z,1017.29
2019-03-25T05:14:46.327Z,1017.27
2019-03-25T05:15:46.294Z,1017.29
2019-03-25T05:16:46.324Z,1017.31
2019-03-25T05:17:46.290Z,1017.33
2019-03-25T05:18:46.225Z,1017.29
2019-03-25T05:19:46.177Z,1017.33
2019-03-25T05:20:46.144Z,1017.39
2019-03-25T05:21:46.144Z,1017.33
2019-03-25T05:22:46.083Z,1017.43
2019-03-25T05:23:46.153Z,1017.43
2019-03-25T05:24:46.025Z,1017.45
2019-03-25T05:25:46.074Z,1017.47
2019-03-25T05:26:50.901Z,1017.56
2019-03-25T05:27:45.983Z,1017.56
2019-03-25T05:28:45.902Z,1017.57
2019-03-25T05:29:45.893Z,1017.56
2019-03-25T05:30:45.853Z,1017.61
2019-03-25T05:31:45.824Z,1017.55
2019-03-25T05:32:45.795Z,1017.54
2019-03-25T05:33:45.816Z,1017.57
2019-03-25T05:34:45.736Z,1017.57
2019-03-25T05:35:46.881Z,1017.53
2019-03-25T05:36:45.669Z,1017.53
2019-03-25T05:37:45.645Z,1017.54
2019-03-25T05:38:45.654Z,1017.61
2019-03-25T05:39:45.583Z,1017.58
2019-03-25T05:40:45.665Z,1017.62
2019-03-25T05:41:45.515Z,1017.63
2019-03-25T05:42:45.492Z,1017.58
2019-03-25T05:43:45.471Z,1017.60
2019-03-25T05:44:45.491Z,1017.62
2019-03-25T05:45:45.404Z,1017.58
2019-03-25T05:46:45.395Z,1017.60
2019-03-25T05:47:45.350Z,1017.65
2019-03-25T05:48:45.325Z,1017.64
2019-03-25T05:49:45.313Z,1017.60
2019-03-25T05:50:45.254Z,1017.58
2019-03-25T05:51:45.334Z,1017.57
2019-03-25T05:52:45.197Z,1017.50
2019-03-25T05:53:45.163Z,1017.52
2019-03-25T05:54:45.140Z,1017.53
2019-03-25T05:55:45.153Z,1017.46
2019-03-25T05:56:45.073Z,1017.52
2019-03-25T05:57:45.064Z,1017.52
2019-03-25T05:58:45.013Z,1017.51
2019-03-25T05:59:44.986Z,1017.53
2019-03-25T06:00:44.983Z,1017.50
2019-03-25T06:01:44.928Z,1017.58
2019-03-25T06:02:45.005Z,1017.61
2019-03-25T06:03:44.865Z,1017.57
2019-03-25T06:04:44.913Z,1017.58
2019-03-25T06:05:44.816Z,1017.50
2019-03-25T06:06:44.823Z,1017.52
2019-03-25T06:07:44.743Z,1017.55
2019-03-25T06:08:44.736Z,1017.55
2019-03-25T06:09:44.687Z,1017.57
2019-03-25T06:10:44.653Z,1017.57
2019-03-25T06:11:44.626Z,1017.58
2019-03-25T06:12:44.663Z,1017.61
2019-03-25T06:13:44.563Z,1017.58
2019-03-25T06:14:44.573Z,1017.56
2019-03-25T06:15:44.504Z,1017.62
2019-03-25T06:16:44.594Z,1017.60
2019-03-25T06:17:44.447Z,1017.63
2019-03-25T06:18:44.494Z,1017.68
2019-03-25T06:19:44.388Z,1017.60
2019-03-25T06:20:44.413Z,1017.61
2019-03-25T06:21:44.415Z,1017.62
2019-03-25T06:22:44.293Z,1017.59
2019-03-25T06:23:44.335Z,1017.57
2019-03-25T06:24:44.233Z,1017.66
2019-03-25T06:25:44.244Z,1017.58
2019-03-25T06:26:44.181Z,1017.58
2019-03-25T06:27:44.150Z,1017.60
2019-03-25T06:28:44.165Z,1017.60
2019-03-25T06:29:44.106Z,1017.57
2019-03-25T06:30:44.074Z,1017.63
2019-03-25T06:31:44.027Z,1017.62
2019-03-25T06:32:44.005Z,1017.55
2019-03-25T06:33:43.973Z,1017.58
2019-03-25T06:34:43.993Z,1017.58
2019-03-25T06:35:43.914Z,1017.56
2019-03-25T06:36:43.915Z,1017.63
2019-03-25T06:37:43.857Z,1017.58
2019-03-25T06:38:43.822Z,1017.65
2019-03-25T06:39:43.824Z,1017.66
2019-03-25T06:40:43.768Z,1017.68
2019-03-25T06:41:43.855Z,1017.62
2019-03-25T06:42:43.715Z,1017.61
2019-03-25T06:43:43.674Z,1017.55
2019-03-25T06:44:43.643Z,1017.54
2019-03-25T06:45:43.674Z,1017.57
2019-03-25T06:46:43.587Z,1017.54
2019-03-25T06:47:43.586Z,1017.57
2019-03-25T06:48:43.525Z,1017.51
2019-03-25T06:49:43.519Z,1017.57
2019-03-25T06:50:43.492Z,1017.59
2019-03-25T06:51:45.238Z,1017.62
2019-03-25T06:52:43.513Z,1017.64
2019-03-25T06:53:43.374Z,1017.59
2019-03-25T06:54:43.343Z,1017.62
2019-03-25T06:55:43.326Z,1017.63
2019-03-25T06:56:43.332Z,1017.71
2019-03-25T06:57:43.253Z,1017.71
2019-03-25T06:58:43.256Z,1017.72
2019-03-25T06:59:43.193Z,1017.63
2019-03-25T07:00:43.162Z,1017.71
2019-03-25T07:01:43.149Z,1017.71
2019-03-25T07:02:43.173Z,1017.65
2019-03-25T07:03:43.084Z,1017.75
2019-03-25T07:04:43.096Z,1017.85
2019-03-25T07:05:43.014Z,1017.77
2019-03-25T07:06:43.094Z,1017.72
2019-03-25T07:07:42.966Z,1017.78
2019-03-25T07:08:43.011Z,1017.81
2019-03-25T07:09:42.894Z,1017.79
2019-03-25T07:10:42.959Z,1017.84
2019-03-25T07:11:42.934Z,1017.84
2019-03-25T07:12:42.824Z,1017.80
2019-03-25T07:13:42.843Z,1017.86
2019-03-25T07:14:42.756Z,1017.85
2019-03-25T07:15:44.194Z,1017.78
2019-03-25T07:16:42.707Z,1017.76
2019-03-25T07:17:42.662Z,1017.85
2019-03-25T07:18:42.677Z,1017.84
2019-03-25T07:19:42.603Z,1017.83
2019-03-25T07:20:42.683Z,1017.79
2019-03-25T07:21:42.544Z,1017.76
2019-03-25T07:22:42.514Z,1017.74
2019-03-25T07:23:42.501Z,1017.81
2019-03-25T07:24:42.515Z,1017.77
2019-03-25T07:25:42.436Z,1017.88
2019-03-25T07:26:42.433Z,1017.84
2019-03-25T07:27:42.374Z,1017.80
2019-03-25T07:28:42.345Z,1017.85
2019-03-25T07:29:42.354Z,1017.80
2019-03-25T07:30:42.293Z,1017.90
2019-03-25T07:31:42.356Z,1017.93
2019-03-25T07:32:42.223Z,1017.89
2019-03-25T07:33:42.194Z,1017.78
2019-03-25T07:34:42.164Z,1017.89
2019-03-25T07:35:42.178Z,1017.79
2019-03-25T07:36:42.122Z,1017.92
2019-03-25T07:37:42.195Z,1017.96
2019-03-25T07:38:42.060Z,1017.96
2019-03-25T07:39:42.036Z,1017.83
2019-03-25T07:40:42.004Z,1017.77
2019-03-25T07:41:41.969Z,1017.83
2019-03-25T07:42:43.059Z,1017.92
2019-03-25T07:43:41.904Z,1017.87
2019-03-25T07:44:41.943Z,1017.92
2019-03-25T07:45:41.844Z,1017.95
2019-03-25T07:46:41.859Z,1017.91
2019-03-25T07:47:41.793Z,1017.91
2019-03-25T07:48:41.879Z,1018.03
2019-03-25T07:49:41.750Z,1017.83
2019-03-25T07:50:41.704Z,1017.81
2019-03-25T07:51:41.772Z,1017.86
2019-03-25T07:52:41.644Z,1017.86
2019-03-25T07:53:41.692Z,1017.87
2019-03-25T07:54:41.593Z,1017.76
2019-03-25T07:55:41.580Z,1017.83
2019-03-25T07:56:41.535Z,1017.82
2019-03-25T07:57:48.233Z,1017.80
2019-03-25T07:58:41.487Z,1017.85
2019-03-25T07:59:41.532Z,1017.84
2019-03-25T08:00:41.413Z,1017.81
2019-03-25T08:01:41.393Z,1017.85
2019-03-25T08:02:41.364Z,1017.91
2019-03-25T08:03:41.354Z,1017.95
2019-03-25T08:04:41.314Z,1018.01
2019-03-25T08:05:41.375Z,1018.00
2019-03-25T08:06:41.244Z,1018.01
2019-03-25T08:07:41.214Z,1018.02
2019-03-25T08:08:41.284Z,1018.09
2019-03-25T08:09:41.185Z,1018.05
2019-03-25T08:10:41.204Z,1018.07
2019-03-25T08:11:41.100Z,1018.02
2019-03-25T08:12:41.108Z,1018.00
2019-03-25T08:13:41.060Z,1017.94
2019-03-25T08:14:41.153Z,1017.96
2019-03-25T08:15:41.037Z,1017.99
2019-03-25T08:16:41.037Z,1018.10
2019-03-25T08:17:40.924Z,1018.20
2019-03-25T08:18:40.944Z,1018.01
2019-03-25T08:19:40.864Z,1018.13
2019-03-25T08:20:40.865Z,1018.23
2019-03-25T08:21:40.802Z,1018.16
2019-03-25T08:22:40.883Z,1018.27
2019-03-25T08:23:40.783Z,1018.20
2019-03-25T08:24:40.729Z,1018.27
2019-03-25T08:25:40.794Z,1018.21
2019-03-25T08:26:42.728Z,1018.33
2019-03-25T08:27:40.731Z,1018.30
2019-03-25T08:28:40.714Z,1018.38
2019-03-25T08:29:40.571Z,1018.40
2019-03-25T08:30:40.623Z,1018.15
2019-03-25T08:31:40.548Z,1018.31
2019-03-25T08:32:40.534Z,1018.29
2019-03-25T08:33:40.465Z,1018.30
2019-03-25T08:34:40.559Z,1018.37
2019-03-25T08:35:40.416Z,1018.40
2019-03-25T08:36:40.463Z,1018.42
2019-03-25T08:37:40.352Z,1018.36
2019-03-25T08:38:40.373Z,1018.47
2019-03-25T08:39:40.384Z,1018.54
2019-03-25T08:40:40.266Z,1018.40
2019-03-25T08:41:40.300Z,1018.42
2019-03-25T08:42:40.215Z,1018.44
2019-03-25T08:43:40.207Z,1018.31
2019-03-25T08:44:40.158Z,1018.63
2019-03-25T08:45:40.214Z,1018.54
2019-03-25T08:46:48.293Z,1018.71
2019-03-25T08:48:44.095Z,1018.51
2019-03-25T08:49:44.004Z,1018.76
2019-03-25T08:51:48.004Z,1018.63
2019-03-25T08:52:47.907Z,1018.65
2019-03-25T08:54:51.907Z,1018.73
2019-03-25T08:55:51.872Z,1018.50
2019-03-25T08:56:51.786Z,1018.49
2019-03-25T08:57:51.781Z,1018.68
2019-03-25T08:58:51.721Z,1018.65
2019-03-25T08:59:51.804Z,1018.57
2019-03-25T09:00:51.686Z,1018.58
2019-03-25T09:01:51.711Z,1018.64
2019-03-25T09:02:51.612Z,1018.62
2019-03-25T09:03:51.636Z,1018.68
2019-03-25T09:04:51.561Z,1018.76
2019-03-25T09:05:51.633Z,1018.79
2019-03-25T09:06:51.558Z,1018.64
2019-03-25T09:07:51.550Z,1018.65
2019-03-25T09:08:51.444Z,1018.76
2019-03-25T09:09:51.453Z,1018.81
2019-03-25T09:10:51.397Z,1018.71
2019-03-25T09:11:51.729Z,1018.80
2019-03-25T09:12:51.334Z,1018.95
2019-03-25T09:13:51.375Z,1018.79
2019-03-25T09:14:51.293Z,1018.89
2019-03-25T09:15:51.282Z,1018.91
2019-03-25T09:16:51.221Z,1018.91
2019-03-25T09:17:51.193Z,1018.88
2019-03-25T09:18:51.202Z,1018.80
2019-03-25T09:19:51.158Z,1018.82
2019-03-25T09:20:51.225Z,1018.73
2019-03-25T09:21:51.083Z,1018.83
2019-03-25T09:22:51.067Z,1018.73
2019-03-25T09:23:51.037Z,1018.82
2019-03-25T09:24:51.034Z,1018.96
2019-03-25T09:25:50.974Z,1018.73
2019-03-25T09:26:51.042Z,1018.75
2019-03-25T09:27:50.924Z,1018.88
2019-03-25T09:28:50.913Z,1018.79
2019-03-25T09:29:50.967Z,1019.17
2019-03-25T09:30:50.842Z,1019.16
2019-03-25T09:31:50.874Z,1019.16
2019-03-25T09:32:50.783Z,1019.06
2019-03-25T09:33:50.752Z,1019.01
2019-03-25T09:34:50.792Z,1018.83
2019-03-25T09:35:50.730Z,1018.87
2019-03-25T09:36:50.714Z,1018.85
2019-03-25T09:37:52.782Z,1019.36
2019-03-25T09:38:50.617Z,1019.19
2019-03-25T09:39:50.604Z,1019.32
2019-03-25T09:40:50.630Z,1018.94
2019-03-25T09:41:50.547Z,1018.96
2019-03-25T09:42:50.533Z,1018.92
2019-03-25T09:43:50.481Z,1018.95
2019-03-25T09:44:50.454Z,1018.89
2019-03-25T09:45:50.431Z,1019.00
2019-03-25T09:46:50.455Z,1019.11
2019-03-25T09:47:50.384Z,1019.08
2019-03-25T09:48:50.376Z,1019.13
2019-03-25T09:49:50.373Z,1019.22
2019-03-25T09:50:50.318Z,1019.24
2019-03-25T09:51:52.813Z,1019.24
2019-03-25T09:52:50.244Z,1019.14
2019-03-25T09:53:50.294Z,1019.26
2019-03-25T09:54:50.194Z,1019.37
2019-03-25T09:55:50.274Z,1019.24
2019-03-25T09:56:50.224Z,1019.50
2019-03-25T09:57:50.149Z,1019.35
2019-03-25T09:58:50.125Z,1019.41
2019-03-25T09:59:50.064Z,1019.30
2019-03-25T10:00:52.058Z,1019.55
2019-03-25T10:01:50.013Z,1019.34
2019-03-25T10:02:50.041Z,1019.42
2019-03-25T10:03:49.971Z,1019.48
2019-03-25T10:04:49.968Z,1019.42
2019-03-25T10:05:49.893Z,1019.42
2019-03-25T10:06:49.964Z,1019.42
2019-03-25T10:07:49.845Z,1019.32
2019-03-25T10:08:49.873Z,1019.30
2019-03-25T10:09:49.782Z,1019.34
2019-03-25T10:10:49.783Z,1019.44
2019-03-25T10:11:49.807Z,1019.58
2019-03-25T10:12:49.715Z,1019.55
2019-03-25T10:13:49.704Z,1019.59
2019-03-25T10:14:49.661Z,1019.63
2019-03-25T10:15:49.713Z,1019.77
2019-03-25T10:16:49.602Z,1019.65
2019-03-25T10:17:49.627Z,1019.67
2019-03-25T10:18:49.560Z,1019.82
2019-03-25T10:19:49.639Z,1019.85
2019-03-25T10:20:49.507Z,1019.88
2019-03-25T10:21:49.542Z,1019.74
2019-03-25T10:22:49.454Z,1019.73
2019-03-25T10:23:49.463Z,1019.63
2019-03-25T10:24:49.463Z,1019.66
2019-03-25T10:25:49.354Z,1019.72
2019-03-25T10:26:49.372Z,1019.82
2019-03-25T10:27:49.399Z,1019.71
2019-03-25T10:28:49.430Z,1019.70
2019-03-25T10:29:49.301Z,1019.75
2019-03-25T10:30:49.224Z,1019.67
2019-03-25T10:31:49.304Z,1019.69
2019-03-25T10:32:49.180Z,1019.74
2019-03-25T10:33:49.152Z,1019.73
2019-03-25T10:34:49.221Z,1019.85
2019-03-25T10:35:49.096Z,1019.70
2019-03-25T10:36:49.148Z,1019.64
2019-03-25T10:37:49.043Z,1019.62
2019-03-25T10:38:49.012Z,1019.67
2019-03-25T10:39:49.055Z,1019.68
2019-03-25T10:40:48.975Z,1019.71
2019-03-25T10:41:48.974Z,1019.58
2019-03-25T10:42:48.924Z,1019.58
2019-03-25T10:43:48.983Z,1019.58
2019-03-25T10:44:48.866Z,1019.65
2019-03-25T10:45:48.904Z,1019.64
2019-03-25T10:46:48.802Z,1019.51
2019-03-25T10:47:48.806Z,1019.49
2019-03-25T10:48:48.751Z,1019.52
2019-03-25T10:49:48.722Z,1019.74
2019-03-25T10:50:48.728Z,1019.68
2019-03-25T10:51:48.674Z,1019.60
2019-03-25T10:52:48.747Z,1019.63
2019-03-25T10:53:48.633Z,1019.66
2019-03-25T10:54:48.775Z,1019.63
2019-03-25T10:55:48.573Z,1019.53
2019-03-25T10:56:49.380Z,1019.53
2019-03-25T10:57:48.513Z,1019.50
2019-03-25T10:58:57.786Z,1019.60
2019-03-25T10:59:48.464Z,1019.64
2019-03-25T11:00:48.454Z,1019.72
2019-03-25T11:01:48.493Z,1019.74
2019-03-25T11:02:48.402Z,1019.83
2019-03-25T11:03:48.404Z,1019.75
2019-03-25T11:04:48.352Z,1019.59
2019-03-25T11:05:48.459Z,1019.78
2019-03-25T11:06:48.282Z,1019.72
2019-03-25T11:07:48.334Z,1019.80
2019-03-25T11:08:48.235Z,1019.75
2019-03-25T11:09:48.354Z,1019.94
2019-03-25T11:10:48.171Z,1019.71
2019-03-25T11:11:48.156Z,1019.75
2019-03-25T11:12:48.132Z,1019.82
2019-03-25T11:13:48.174Z,1019.87
2019-03-25T11:14:48.076Z,1019.83
2019-03-25T11:15:48.185Z,1019.82
2019-03-25T11:16:48.025Z,1019.76
2019-03-25T11:17:47.995Z,1019.72
2019-03-25T11:18:48.104Z,1019.93
2019-03-25T11:19:47.948Z,1019.70
2019-03-25T11:20:48.014Z,1019.74
2019-03-25T11:21:47.893Z,1019.76
2019-03-25T11:22:47.878Z,1019.74
2019-03-25T11:23:47.844Z,1019.63
2019-03-25T11:24:47.943Z,1019.73
2019-03-25T11:25:47.793Z,1019.86
2019-03-25T11:26:47.854Z,1019.68
2019-03-25T11:27:54.318Z,1019.64
2019-03-25T11:28:47.723Z,1019.70
2019-03-25T11:29:47.792Z,1019.72
2019-03-25T11:30:47.685Z,1019.78
2019-03-25T11:31:47.793Z,1019.91
2019-03-25T11:32:47.622Z,1020.15
2019-03-25T11:33:47.593Z,1020.11
2019-03-25T11:34:47.585Z,1020.05
2019-03-25T11:35:47.711Z,1020.21
2019-03-25T11:36:47.525Z,1020.23
2019-03-25T11:37:47.633Z,1020.20
2019-03-25T11:38:47.477Z,1020.25
2019-03-25T11:39:47.442Z,1020.36
2019-03-25T11:40:47.542Z,1020.30
2019-03-25T11:41:47.411Z,1020.28
2019-03-25T11:42:47.451Z,1020.25
2019-03-25T11:43:47.344Z,1020.15
2019-03-25T11:44:47.478Z,1020.18
2019-03-25T11:45:47.308Z,1020.09
2019-03-25T11:46:47.386Z,1020.15
2019-03-25T11:47:47.265Z,1020.17
2019-03-25T11:48:47.424Z,1020.11
2019-03-25T11:49:47.193Z,1020.05
2019-03-25T11:50:47.164Z,1020.05
2019-03-25T11:51:47.142Z,1020.09
2019-03-25T11:52:47.239Z,1020.06
2019-03-25T11:53:47.104Z,1020.07
2019-03-25T11:54:47.236Z,1020.22
2019-03-25T11:55:47.043Z,1020.13
2019-03-25T11:56:47.041Z,1020.30
2019-03-25T11:57:47.163Z,1020.16
2019-03-25T11:58:46.974Z,1020.16
2019-03-25T11:59:47.062Z,1020.16
2019-03-25T12:00:46.924Z,1020.12
2019-03-25T12:01:46.892Z,1020.09
2019-03-25T12:02:46.875Z,1020.14
2019-03-25T12:03:46.993Z,1020.10
2019-03-25T12:04:46.834Z,1020.24
2019-03-25T12:05:46.822Z,1020.11
2019-03-25T12:06:46.772Z,1020.11
2019-03-25T12:07:46.751Z,1020.14
2019-03-25T12:08:46.743Z,1020.15
2019-03-25T12:09:46.714Z,1020.31
2019-03-25T12:10:46.753Z,1020.18
2019-03-25T12:11:46.655Z,1020.04
2019-03-25T12:12:46.622Z,1019.99
2019-03-25T12:13:46.651Z,1019.99
2019-03-25T12:14:46.672Z,1019.89
2019-03-25T12:15:46.570Z,1019.89
2019-03-25T12:16:46.596Z,1019.66
2019-03-25T12:17:46.504Z,1019.85
2019-03-25T12:18:46.483Z,1020.06
2019-03-25T12:19:46.503Z,1020.20
2019-03-25T12:20:46.433Z,1020.13
2019-03-25T12:21:46.534Z,1020.39
2019-03-25T12:22:46.381Z,1020.46
2019-03-25T12:23:46.363Z,1020.51
2019-03-25T12:24:46.523Z,1020.50
2019-03-25T12:25:46.316Z,1020.41
2019-03-25T12:26:46.446Z,1020.47
2019-03-25T12:27:46.261Z,1020.51
2019-03-25T12:28:46.354Z,1020.54
2019-03-25T12:29:46.216Z,1020.45
2019-03-25T12:30:46.362Z,1020.51
2019-03-25T12:31:46.162Z,1020.52
2019-03-25T12:32:46.276Z,1020.48
2019-03-25T12:33:46.114Z,1020.51
2019-03-25T12:34:46.101Z,1020.43
2019-03-25T12:35:46.063Z,1020.35
2019-03-25T12:36:46.205Z,1020.34
2019-03-25T12:37:46.011Z,1020.47
2019-03-25T12:38:46.111Z,1020.33
2019-03-25T12:39:45.988Z,1020.26
2019-03-25T12:40:45.932Z,1020.33
2019-03-25T12:41:45.914Z,1020.26
2019-03-25T12:42:46.033Z,1020.31
2019-03-25T12:43:45.863Z,1020.30
2019-03-25T12:44:45.943Z,1020.30
2019-03-25T12:45:45.803Z,1020.29
2019-03-25T12:46:45.882Z,1020.24
2019-03-25T12:47:45.753Z,1020.26
2019-03-25T12:48:45.773Z,1020.19
2019-03-25T12:49:45.705Z,1020.26
2019-03-25T12:50:45.783Z,1020.39
2019-03-25T12:51:48.303Z,1020.15
2019-03-25T12:52:45.713Z,1020.26
2019-03-25T12:53:45.601Z,1020.15
2019-03-25T12:54:45.612Z,1020.17